< < Back
Terminal Aerodrome Forecast


Current Version              Previous Versions:   1  2  3  4  5  6  7  8  9  

Terminal Aerodrome Forecast

297
FTUS42 KTAE 271100
TAFTLH
TAF
KTLH 271120Z 2712/2812 25004KT P6SM SKC
     FM271500 30012G18KT P6SM SKC
     FM280000 34004KT P6SM SKC=



Latest METAR

021
SAUS80 KWBC 271600 RRA
MTRTLH
METAR KTLH 271553Z 29011KT 10SM CLR 14/02 A3002 RMK AO2 SLP163 T01390017
$


USA.gov is the U.S. government's official web portal to all federal, state and local government web resources and services.